Time,TemperatureF,DewpointF,PressureIn,WindDirection,WindDirectionDegrees,WindSpeedMPH,WindSpeedGustMPH,Humidity,HourlyPrecipIn,Conditions,Clouds,dailyrainin,SoftwareType,DateUTC
2013-04-14 00:00:00,31.0,29.0,29.93,WSW,256,0.0,3.0,92,0.02,,---,0.34,VWS V14.01,2013-04-14 04:00:00,
2013-04-14 00:05:00,31.0,29.0,29.93,WSW,256,1.0,3.0,92,0.02,,---,0.00,VWS V14.01,2013-04-14 04:05:00,
2013-04-14 00:10:00,31.0,29.0,29.93,WSW,256,2.0,2.0,92,0.01,,---,0.00,VWS V14.01,2013-04-14 04:10:00,
2013-04-14 00:15:00,31.0,28.7,29.93,WSW,256,0.0,3.0,91,0.01,,---,0.00,VWS V14.01,2013-04-14 04:15:00,
2013-04-14 00:20:00,31.1,28.8,29.93,NW,311,2.0,3.0,91,0.01,,---,0.00,VWS V14.01,2013-04-14 04:20:00,
2013-04-14 00:25:00,31.2,28.6,29.94,NW,311,0.0,4.0,90,0.01,,---,0.00,VWS V14.01,2013-04-14 04:25:00,
2013-04-14 00:30:00,31.2,28.3,29.94,NW,311,3.0,4.0,89,0.01,,---,0.00,VWS V14.01,2013-04-14 04:30:00,
2013-04-14 00:35:00,31.2,27.8,29.94,NW,305,4.0,6.0,87,0.01,,---,0.00,VWS V14.01,2013-04-14 04:35:00,
2013-04-14 00:40:00,31.3,27.9,29.94,NNW,333,2.0,3.0,87,0.01,,---,0.00,VWS V14.01,2013-04-14 04:40:00,
2013-04-14 00:45:00,31.3,27.6,29.94,North,358,2.0,6.0,86,0.01,,---,0.00,VWS V14.01,2013-04-14 04:45:00,
2013-04-14 00:50:00,31.3,27.0,29.95,NNW,347,3.0,6.0,84,0.01,,---,0.00,VWS V14.01,2013-04-14 04:50:00,
2013-04-14 00:55:00,31.2,26.9,29.95,North,351,4.0,6.0,84,0.01,,---,0.00,VWS V14.01,2013-04-14 04:55:00,
2013-04-14 01:00:00,31.2,26.6,29.95,North,352,3.0,5.0,83,0.00,,---,0.00,VWS V14.01,2013-04-14 05:00:00,
2013-04-14 01:05:00,31.1,26.5,29.95,NNW,342,4.0,6.0,83,0.00,,---,0.00,VWS V14.01,2013-04-14 05:05:00,
2013-04-14 01:10:00,31.1,26.3,29.95,NNW,342,3.0,3.0,82,0.00,,---,0.00,VWS V14.01,2013-04-14 05:10:00,
2013-04-14 01:15:00,30.9,26.1,29.95,NNW,342,0.0,5.0,82,0.00,,---,0.00,VWS V14.01,2013-04-14 05:15:00,
2013-04-14 01:20:00,30.8,26.0,29.95,NNW,342,2.0,3.0,82,0.00,,---,0.00,VWS V14.01,2013-04-14 05:20:00,
2013-04-14 01:25:00,30.8,26.0,29.96,NNW,342,4.0,4.0,82,0.00,,---,0.00,VWS V14.01,2013-04-14 05:25:00,
2013-04-14 01:30:00,30.6,25.8,29.96,NNW,342,1.0,1.0,82,0.00,,---,0.00,VWS V14.01,2013-04-14 05:30:00,
2013-04-14 01:35:00,30.6,25.8,29.96,NNW,342,1.0,4.0,82,0.00,,---,0.00,VWS V14.01,2013-04-14 05:35:00,
2013-04-14 01:40:00,30.5,25.7,29.96,NNW,342,2.0,2.0,82,0.00,,---,0.00,VWS V14.01,2013-04-14 05:40:00,
2013-04-14 01:45:00,30.5,25.7,29.96,NNW,342,0.0,3.0,82,0.00,,---,0.00,VWS V14.01,2013-04-14 05:45:00,
2013-04-14 01:50:00,30.2,25.4,29.97,NNW,342,0.0,1.0,82,0.00,,---,0.00,VWS V14.01,2013-04-14 05:50:00,
2013-04-14 01:55:00,30.0,25.5,29.96,NNW,342,1.0,4.0,83,0.00,,---,0.00,VWS V14.01,2013-04-14 05:55:00,
2013-04-14 02:00:00,31.2,26.6,29.95,North,352,2.0,6.0,83,0.01,,---,0.00,VWS V14.01,2013-04-14 06:00:00,
2013-04-14 02:01:00,29.9,25.4,29.96,NNW,342,1.0,2.0,83,0.00,,---,0.00,VWS V14.01,2013-04-14 06:01:00,
2013-04-14 02:06:00,29.9,25.1,29.96,NNW,342,0.0,3.0,82,0.00,,---,0.00,VWS V14.01,2013-04-14 06:06:00,
2013-04-14 02:10:00,31.0,26.5,29.95,NNW,342,2.0,6.0,83,0.00,,---,0.00,VWS V14.01,2013-04-14 06:10:00,
2013-04-14 02:11:00,29.9,25.4,29.96,NNW,342,0.0,2.0,83,0.00,,---,0.00,VWS V14.01,2013-04-14 06:11:00,
2013-04-14 02:16:00,29.7,25.2,29.96,NNW,342,0.0,3.0,83,0.00,,---,0.00,VWS V14.01,2013-04-14 06:16:00,
2013-04-14 02:20:00,30.8,26.0,29.95,NNW,342,1.0,5.0,82,0.00,,---,0.00,VWS V14.01,2013-04-14 06:20:00,
2013-04-14 02:21:00,29.6,25.1,29.96,NNW,342,1.0,1.0,83,0.00,,---,0.00,VWS V14.01,2013-04-14 06:21:00,
2013-04-14 02:26:00,29.4,24.6,29.97,NNW,342,0.0,2.0,82,0.00,,---,0.00,VWS V14.01,2013-04-14 06:26:00,
2013-04-14 02:30:00,30.6,25.8,29.96,NNW,342,0.0,5.0,82,0.00,,---,0.00,VWS V14.01,2013-04-14 06:30:00,
2013-04-14 02:31:00,29.1,24.6,29.96,NNW,342,0.0,1.0,83,0.00,,---,0.00,VWS V14.01,2013-04-14 06:31:00,
2013-04-14 02:36:00,28.8,24.3,29.97,NNW,342,0.0,2.0,83,0.00,,---,0.00,VWS V14.01,2013-04-14 06:36:00,
2013-04-14 02:40:00,30.5,25.7,29.96,NNW,342,0.0,4.0,82,0.00,,---,0.00,VWS V14.01,2013-04-14 06:40:00,
2013-04-14 02:41:00,28.7,24.5,29.97,NNW,342,1.0,1.0,84,0.00,,---,0.00,VWS V14.01,2013-04-14 06:41:00,
2013-04-14 02:46:00,28.4,24.2,29.97,NNW,342,0.0,2.0,84,0.00,,---,0.00,VWS V14.01,2013-04-14 06:46:00,
2013-04-14 02:50:00,30.2,25.4,29.96,NNW,342,0.0,3.0,82,0.00,,---,0.00,VWS V14.01,2013-04-14 06:50:00,
2013-04-14 02:52:00,28.2,24.3,29.97,NNW,342,1.0,1.0,85,0.00,,---,0.00,VWS V14.01,2013-04-14 06:52:00,
2013-04-14 02:57:00,28.2,24.3,29.97,NNW,342,1.0,2.0,85,0.00,,---,0.00,VWS V14.01,2013-04-14 06:57:00,
2013-04-14 03:00:00,30.0,25.5,29.96,NNW,342,1.0,4.0,83,0.00,,---,0.00,VWS V14.01,2013-04-14 07:00:00,
2013-04-14 03:02:00,28.1,24.5,29.97,NNW,342,0.0,2.0,86,0.00,,---,0.00,VWS V14.01,2013-04-14 07:02:00,
2013-04-14 03:07:00,28.1,24.2,29.97,NNW,342,1.0,3.0,85,0.00,,---,0.00,VWS V14.01,2013-04-14 07:07:00,
2013-04-14 03:10:00,29.9,25.4,29.96,NNW,342,1.0,3.0,83,0.00,,---,0.00,VWS V14.01,2013-04-14 07:10:00,
2013-04-14 03:12:00,28.1,24.2,29.98,NNW,342,2.0,3.0,85,0.00,,---,0.00,VWS V14.01,2013-04-14 07:12:00,
2013-04-14 03:17:00,28.1,24.5,29.98,NNW,342,2.0,3.0,86,0.00,,---,0.00,VWS V14.01,2013-04-14 07:17:00,
2013-04-14 03:20:00,29.5,24.7,29.96,NNW,342,1.0,3.0,82,0.00,,---,0.00,VWS V14.01,2013-04-14 07:20:00,
2013-04-14 03:22:00,27.9,24.3,29.98,NNW,342,1.0,3.0,86,0.00,,---,0.00,VWS V14.01,2013-04-14 07:22:00,
2013-04-14 03:27:00,27.8,24.2,29.98,NNW,342,1.0,3.0,86,0.00,,---,0.00,VWS V14.01,2013-04-14 07:27:00,
2013-04-14 03:30:00,29.3,24.8,29.97,NNW,342,0.0,2.0,83,0.00,,---,0.00,VWS V14.01,2013-04-14 07:30:00,
2013-04-14 03:32:00,27.8,24.2,29.98,NNW,342,0.0,3.0,86,0.00,,---,0.00,VWS V14.01,2013-04-14 07:32:00,
2013-04-14 03:37:00,27.7,24.1,29.98,NNW,342,2.0,3.0,86,0.00,,---,0.00,VWS V14.01,2013-04-14 07:37:00,
2013-04-14 03:40:00,28.7,24.5,29.97,NNW,342,0.0,2.0,84,0.00,,---,0.00,VWS V14.01,2013-04-14 07:40:00,
2013-04-14 03:42:00,27.6,24.2,29.98,NNW,342,2.0,3.0,87,0.00,,---,0.00,VWS V14.01,2013-04-14 07:42:00,
2013-04-14 03:47:00,27.5,24.1,29.98,NNW,342,0.0,3.0,87,0.00,,---,0.00,VWS V14.01,2013-04-14 07:47:00,
2013-04-14 03:50:00,28.4,24.2,29.97,NNW,342,0.0,2.0,84,0.00,,---,0.00,VWS V14.01,2013-04-14 07:50:00,
2013-04-14 03:52:00,27.5,24.1,29.98,NNW,342,1.0,3.0,87,0.00,,---,0.00,VWS V14.01,2013-04-14 07:52:00,
2013-04-14 03:57:00,27.4,24.0,29.99,NNW,342,1.0,3.0,87,0.00,,---,0.00,VWS V14.01,2013-04-14 07:57:00,
2013-04-14 04:00:00,28.1,24.2,29.97,NNW,342,1.0,2.0,85,0.00,,---,0.00,VWS V14.01,2013-04-14 08:00:00,
2013-04-14 04:02:00,27.3,24.0,29.99,NNW,342,2.0,2.0,87,0.00,,---,0.00,VWS V14.01,2013-04-14 08:02:00,
2013-04-14 04:07:00,27.2,23.9,29.99,NNW,342,1.0,3.0,87,0.00,,---,0.00,VWS V14.01,2013-04-14 08:07:00,
2013-04-14 04:10:00,28.1,24.5,29.97,NNW,342,1.0,3.0,86,0.00,,---,0.00,VWS V14.01,2013-04-14 08:10:00,
2013-04-14 04:12:00,27.2,23.9,29.99,NNW,342,1.0,3.0,87,0.00,,---,0.00,VWS V14.01,2013-04-14 08:12:00,
2013-04-14 04:17:00,27.1,23.8,29.99,NNW,342,0.0,3.0,87,0.00,,---,0.00,VWS V14.01,2013-04-14 08:17:00,
2013-04-14 04:20:00,27.9,24.3,29.98,NNW,342,1.0,3.0,86,0.00,,---,0.00,VWS V14.01,2013-04-14 08:20:00,
2013-04-14 04:22:00,26.9,23.6,29.99,NNW,342,0.0,0.0,87,0.00,,---,0.00,VWS V14.01,2013-04-14 08:22:00,
2013-04-14 04:27:00,26.8,23.5,29.99,NNW,342,0.0,0.0,87,0.00,,---,0.00,VWS V14.01,2013-04-14 08:27:00,
2013-04-14 04:30:00,27.8,24.2,29.98,NNW,342,1.0,3.0,86,0.00,,---,0.00,VWS V14.01,2013-04-14 08:30:00,
2013-04-14 04:32:00,26.6,23.3,29.99,NNW,341,3.0,3.0,87,0.00,,---,0.00,VWS V14.01,2013-04-14 08:32:00,
2013-04-14 04:37:00,26.8,23.7,29.99,NNW,341,2.0,3.0,88,0.00,,---,0.00,VWS V14.01,2013-04-14 08:37:00,
2013-04-14 04:40:00,27.6,24.2,29.98,NNW,342,1.0,3.0,87,0.00,,---,0.00,VWS V14.01,2013-04-14 08:40:00,
2013-04-14 04:42:00,26.7,23.6,29.99,NNW,341,1.0,3.0,88,0.00,,---,0.00,VWS V14.01,2013-04-14 08:42:00,
2013-04-14 04:47:00,26.7,23.4,30.00,NNW,341,1.0,3.0,87,0.00,,---,0.00,VWS V14.01,2013-04-14 08:47:00,
2013-04-14 04:50:00,27.5,24.1,29.98,NNW,342,1.0,3.0,87,0.00,,---,0.00,VWS V14.01,2013-04-14 08:50:00,
2013-04-14 04:52:00,26.6,23.3,30.00,NNW,341,0.0,2.0,87,0.00,,---,0.00,VWS V14.01,2013-04-14 08:52:00,
2013-04-14 04:58:00,26.6,23.3,30.00,NNW,341,0.0,2.0,87,0.00,,---,0.00,VWS V14.01,2013-04-14 08:58:00,
2013-04-14 05:00:00,27.4,24.0,29.98,NNW,342,0.0,3.0,87,0.00,,---,0.00,VWS V14.01,2013-04-14 09:00:00,
2013-04-14 05:03:00,26.3,23.0,30.00,NNW,341,1.0,3.0,87,0.00,,---,0.00,VWS V14.01,2013-04-14 09:03:00,
2013-04-14 05:08:00,26.0,22.7,30.00,NNW,341,1.0,3.0,87,0.00,,---,0.00,VWS V14.01,2013-04-14 09:08:00,
2013-04-14 05:10:00,27.2,23.9,29.99,NNW,342,1.0,3.0,87,0.00,,---,0.00,VWS V14.01,2013-04-14 09:10:00,
2013-04-14 05:13:00,26.0,22.9,30.00,NNW,341,0.0,3.0,88,0.00,,---,0.00,VWS V14.01,2013-04-14 09:13:00,
2013-04-14 05:18:00,25.9,23.1,30.00,NNW,341,1.0,3.0,89,0.00,,---,0.00,VWS V14.01,2013-04-14 09:18:00,
2013-04-14 05:20:00,27.1,23.8,29.99,NNW,342,0.0,3.0,87,0.00,,---,0.00,VWS V14.01,2013-04-14 09:20:00,
2013-04-14 05:23:00,26.0,23.2,30.01,NNW,341,2.0,4.0,89,0.00,,---,0.00,VWS V14.01,2013-04-14 09:23:00,
2013-04-14 05:28:00,26.2,23.4,30.01,NNW,341,3.0,4.0,89,0.00,,---,0.00,VWS V14.01,2013-04-14 09:28:00,
2013-04-14 05:30:00,26.6,23.3,29.99,NNW,341,1.0,1.0,87,0.00,,---,0.00,VWS V14.01,2013-04-14 09:30:00,
2013-04-14 05:33:00,26.2,23.4,30.00,NNW,341,2.0,3.0,89,0.00,,---,0.00,VWS V14.01,2013-04-14 09:33:00,
2013-04-14 05:38:00,26.1,23.3,30.01,NNW,341,1.0,4.0,89,0.00,,---,0.00,VWS V14.01,2013-04-14 09:38:00,
2013-04-14 05:40:00,26.7,23.6,30.00,NNW,341,2.0,3.0,88,0.00,,---,0.00,VWS V14.01,2013-04-14 09:40:00,
2013-04-14 05:43:00,26.0,23.5,30.01,NNW,341,1.0,4.0,90,0.00,,---,0.00,VWS V14.01,2013-04-14 09:43:00,
2013-04-14 05:48:00,25.9,23.4,30.01,NNW,341,5.0,5.0,90,0.00,,---,0.00,VWS V14.01,2013-04-14 09:48:00,
2013-04-14 05:50:00,26.7,23.4,30.00,NNW,341,1.0,3.0,87,0.00,,---,0.00,VWS V14.01,2013-04-14 09:50:00,
2013-04-14 05:53:00,25.7,23.2,30.01,NNW,341,4.0,5.0,90,0.00,,---,0.00,VWS V14.01,2013-04-14 09:53:00,
2013-04-14 05:58:00,25.5,23.2,30.01,NNW,341,3.0,5.0,91,0.00,,---,0.00,VWS V14.01,2013-04-14 09:58:00,
2013-04-14 06:00:00,26.6,23.3,30.00,NNW,341,1.0,2.0,87,0.00,,---,0.00,VWS V14.01,2013-04-14 10:00:00,
2013-04-14 06:03:00,25.5,23.2,30.01,NNW,341,2.0,5.0,91,0.00,,---,0.00,VWS V14.01,2013-04-14 10:03:00,
2013-04-14 06:08:00,25.8,23.5,30.01,NNW,341,4.0,5.0,91,0.00,,---,0.00,VWS V14.01,2013-04-14 10:08:00,
2013-04-14 06:10:00,26.0,22.9,30.00,NNW,341,1.0,3.0,88,0.00,,---,0.00,VWS V14.01,2013-04-14 10:10:00,
2013-04-14 06:13:00,25.7,23.4,30.01,South,182,4.0,5.0,91,0.00,,---,0.00,VWS V14.01,2013-04-14 10:13:00,
2013-04-14 06:18:00,26.0,23.7,30.00,South,182,2.0,5.0,91,0.00,,---,0.00,VWS V14.01,2013-04-14 10:18:00,
2013-04-14 06:20:00,25.8,23.0,30.00,NNW,341,1.0,3.0,89,0.00,,---,0.00,VWS V14.01,2013-04-14 10:20:00,
2013-04-14 06:23:00,26.0,23.7,30.01,South,182,3.0,4.0,91,0.00,,---,0.00,VWS V14.01,2013-04-14 10:23:00,
2013-04-14 06:28:00,25.8,23.5,30.01,South,182,1.0,4.0,91,0.00,,---,0.00,VWS V14.01,2013-04-14 10:28:00,
2013-04-14 06:30:00,26.0,23.2,30.00,NNW,341,3.0,4.0,89,0.00,,---,0.00,VWS V14.01,2013-04-14 10:30:00,
2013-04-14 06:33:00,25.7,23.4,30.01,South,182,2.0,4.0,91,0.00,,---,0.00,VWS V14.01,2013-04-14 10:33:00,
2013-04-14 06:38:00,25.7,23.4,30.01,South,182,2.0,4.0,91,0.00,,---,0.00,VWS V14.01,2013-04-14 10:38:00,
2013-04-14 06:40:00,26.1,23.6,30.01,NNW,341,3.0,4.0,90,0.00,,---,0.00,VWS V14.01,2013-04-14 10:40:00,
2013-04-14 06:43:00,25.5,23.5,30.01,South,182,2.0,4.0,92,0.00,,---,0.00,VWS V14.01,2013-04-14 10:43:00,
2013-04-14 06:48:00,25.4,23.4,30.02,South,182,1.0,4.0,92,0.00,,---,0.00,VWS V14.01,2013-04-14 10:48:00,
2013-04-14 06:50:00,25.7,23.2,30.00,NNW,341,3.0,5.0,90,0.00,,---,0.00,VWS V14.01,2013-04-14 10:50:00,
2013-04-14 06:53:00,25.4,23.1,30.02,South,182,1.0,3.0,91,0.00,,---,0.00,VWS V14.01,2013-04-14 10:53:00,
2013-04-14 06:58:00,25.2,23.0,30.02,South,182,1.0,3.0,91,0.00,,---,0.00,VWS V14.01,2013-04-14 10:58:00,
2013-04-14 07:00:00,25.4,23.1,30.01,NNW,341,2.0,5.0,91,0.00,,---,0.00,VWS V14.01,2013-04-14 11:00:00,
2013-04-14 07:03:00,24.9,22.9,30.02,South,182,1.0,2.0,92,0.00,,---,0.00,VWS V14.01,2013-04-14 11:03:00,
2013-04-14 07:08:00,24.8,22.5,30.03,South,182,0.0,2.0,91,0.00,,---,0.00,VWS V14.01,2013-04-14 11:08:00,
2013-04-14 07:10:00,25.7,23.4,30.01,NNW,341,4.0,5.0,91,0.00,,---,0.00,VWS V14.01,2013-04-14 11:10:00,
2013-04-14 07:13:00,24.6,22.6,30.03,South,182,1.0,2.0,92,0.00,,---,0.00,VWS V14.01,2013-04-14 11:13:00,
2013-04-14 07:18:00,24.6,22.6,30.03,South,182,1.0,2.0,92,0.00,,---,0.00,VWS V14.01,2013-04-14 11:18:00,
2013-04-14 07:20:00,26.0,24.0,30.00,South,182,2.0,5.0,92,0.00,,---,0.00,VWS V14.01,2013-04-14 11:20:00,
2013-04-14 07:23:00,24.6,22.6,30.03,South,182,1.0,3.0,92,0.00,,---,0.00,VWS V14.01,2013-04-14 11:23:00,
2013-04-14 07:28:00,24.6,22.6,30.04,South,182,1.0,3.0,92,0.00,,---,0.00,VWS V14.01,2013-04-14 11:28:00,
2013-04-14 07:30:00,25.9,23.6,30.01,South,182,2.0,4.0,91,0.00,,---,0.00,VWS V14.01,2013-04-14 11:30:00,
2013-04-14 07:33:00,24.6,22.6,30.04,South,182,1.0,3.0,92,0.00,,---,0.00,VWS V14.01,2013-04-14 11:33:00,
2013-04-14 07:38:00,24.8,22.8,30.04,South,182,1.0,4.0,92,0.00,,---,0.00,VWS V14.01,2013-04-14 11:38:00,
2013-04-14 07:40:00,25.7,23.7,30.01,South,182,1.0,4.0,92,0.00,,---,0.00,VWS V14.01,2013-04-14 11:40:00,
2013-04-14 07:43:00,25.0,23.0,30.04,South,182,3.0,3.0,92,0.00,,---,0.00,VWS V14.01,2013-04-14 11:43:00,
2013-04-14 07:48:00,25.4,23.7,30.05,South,182,1.0,4.0,93,0.00,,---,0.00,VWS V14.01,2013-04-14 11:48:00,
2013-04-14 07:50:00,25.4,23.4,30.02,South,182,3.0,4.0,92,0.00,,---,0.00,VWS V14.01,2013-04-14 11:50:00,
2013-04-14 07:53:00,25.8,24.3,30.04,South,182,1.0,3.0,94,0.00,,---,0.00,VWS V14.01,2013-04-14 11:53:00,
2013-04-14 07:58:00,26.1,24.6,30.04,South,182,1.0,3.0,94,0.00,,---,0.00,VWS V14.01,2013-04-14 11:58:00,
2013-04-14 08:00:00,25.1,23.1,30.02,South,182,0.0,3.0,92,0.00,,---,0.00,VWS V14.01,2013-04-14 12:00:00,
2013-04-14 08:03:00,26.5,24.8,30.05,South,182,2.0,3.0,93,0.00,,---,0.00,VWS V14.01,2013-04-14 12:03:00,
2013-04-14 08:08:00,26.6,24.9,30.05,South,182,0.0,3.0,93,0.00,,---,0.00,VWS V14.01,2013-04-14 12:08:00,
2013-04-14 08:10:00,24.8,22.8,30.03,South,182,0.0,2.0,92,0.00,,---,0.00,VWS V14.01,2013-04-14 12:10:00,
2013-04-14 08:13:00,27.0,25.5,30.06,South,182,3.0,4.0,94,0.00,,---,0.00,VWS V14.01,2013-04-14 12:13:00,
2013-04-14 08:18:00,27.6,25.8,30.06,South,184,4.0,7.0,93,0.00,,---,0.00,VWS V14.01,2013-04-14 12:18:00,
2013-04-14 08:20:00,24.6,22.6,30.03,South,182,1.0,2.0,92,0.00,,---,0.00,VWS V14.01,2013-04-14 12:20:00,
2013-04-14 08:23:00,28.1,26.3,30.06,SSE,165,3.0,5.0,93,0.00,,---,0.00,VWS V14.01,2013-04-14 12:23:00,
2013-04-14 08:28:00,28.2,26.2,30.06,South,179,2.0,6.0,92,0.00,,---,0.00,VWS V14.01,2013-04-14 12:28:00,
2013-04-14 08:30:00,24.6,22.6,30.03,South,182,3.0,3.0,92,0.00,,---,0.00,VWS V14.01,2013-04-14 12:30:00,
2013-04-14 08:33:00,28.5,26.2,30.07,South,179,2.0,5.0,91,0.00,,---,0.00,VWS V14.01,2013-04-14 12:33:00,
2013-04-14 08:38:00,28.8,26.5,30.08,SSE,153,1.0,5.0,91,0.00,,---,0.00,VWS V14.01,2013-04-14 12:38:00,
2013-04-14 08:40:00,24.8,22.8,30.04,South,182,1.0,4.0,92,0.00,,---,0.00,VWS V14.01,2013-04-14 12:40:00,
2013-04-14 08:43:00,29.1,26.8,30.08,South,180,2.0,5.0,91,0.00,,---,0.00,VWS V14.01,2013-04-14 12:43:00,
2013-04-14 08:48:00,29.6,27.3,30.08,South,180,1.0,5.0,91,0.00,,---,0.00,VWS V14.01,2013-04-14 12:48:00,
2013-04-14 08:50:00,25.5,23.8,30.05,South,182,0.0,4.0,93,0.00,,---,0.00,VWS V14.01,2013-04-14 12:50:00,
2013-04-14 08:53:00,30.0,27.4,30.07,ESE,116,1.0,4.0,90,0.00,,---,0.00,VWS V14.01,2013-04-14 12:53:00,
2013-04-14 08:58:00,30.5,27.6,30.06,East,90,2.0,5.0,89,0.00,,---,0.00,VWS V14.01,2013-04-14 12:58:00,
2013-04-14 09:00:00,26.3,24.6,30.05,South,182,0.0,3.0,93,0.00,,---,0.00,VWS V14.01,2013-04-14 13:00:00,
2013-04-14 09:03:00,30.8,28.2,30.07,East,91,0.0,3.0,90,0.00,,---,0.00,VWS V14.01,2013-04-14 13:03:00,
2013-04-14 09:08:00,31.2,28.1,30.07,East,97,2.0,4.0,88,0.00,,---,0.00,VWS V14.01,2013-04-14 13:08:00,
2013-04-14 09:10:00,26.6,24.9,30.05,South,182,2.0,3.0,93,0.00,,---,0.00,VWS V14.01,2013-04-14 13:10:00,
2013-04-14 09:13:00,31.9,28.8,30.07,ESE,106,1.0,3.0,88,0.00,,---,0.00,VWS V14.01,2013-04-14 13:13:00,
2013-04-14 09:18:00,32.4,29.0,30.07,ESE,106,0.0,3.0,87,0.00,,---,0.00,VWS V14.01,2013-04-14 13:18:00,
2013-04-14 09:20:00,27.8,26.0,30.06,South,184,4.0,7.0,93,0.00,,---,0.00,VWS V14.01,2013-04-14 13:20:00,
2013-04-14 09:23:00,32.6,28.9,30.06,ESE,106,3.0,4.0,86,0.00,,---,0.00,VWS V14.01,2013-04-14 13:23:00,
2013-04-14 09:28:00,33.0,29.3,30.06,ESE,106,1.0,4.0,86,0.00,,---,0.00,VWS V14.01,2013-04-14 13:28:00,
2013-04-14 09:30:00,28.2,26.2,30.07,South,179,2.0,6.0,92,0.00,,---,0.00,VWS V14.01,2013-04-14 13:30:00,
2013-04-14 09:33:00,33.5,29.5,30.06,ESE,106,0.0,3.0,85,0.00,,---,0.00,VWS V14.01,2013-04-14 13:33:00,
2013-04-14 09:38:00,33.9,29.9,30.06,ESE,105,0.0,3.0,85,0.00,,---,0.00,VWS V14.01,2013-04-14 13:38:00,
2013-04-14 09:40:00,28.8,26.5,30.08,SE,126,2.0,5.0,91,0.00,,---,0.00,VWS V14.01,2013-04-14 13:40:00,
2013-04-14 09:44:00,34.3,30.0,30.06,ESE,104,0.0,3.0,84,0.01,,---,0.01,VWS V14.01,2013-04-14 13:44:00,
2013-04-14 09:49:00,34.3,29.7,30.06,ESE,106,2.0,3.0,83,0.01,,---,0.01,VWS V14.01,2013-04-14 13:49:00,
2013-04-14 09:50:00,29.6,27.0,30.07,South,180,3.0,5.0,90,0.00,,---,0.00,VWS V14.01,2013-04-14 13:50:00,
2013-04-14 09:54:00,33.9,29.0,30.07,ESE,105,1.0,2.0,82,0.01,,---,0.01,VWS V14.01,2013-04-14 13:54:00,
2013-04-14 09:59:00,33.6,28.7,30.07,ESE,105,0.0,3.0,82,0.01,,---,0.01,VWS V14.01,2013-04-14 13:59:00,
2013-04-14 10:00:00,30.5,27.6,30.06,East,90,2.0,5.0,89,0.00,,---,0.00,VWS V14.01,2013-04-14 14:00:00,
2013-04-14 10:04:00,34.0,29.1,30.07,ESE,105,0.0,1.0,82,0.01,,---,0.01,VWS V14.01,2013-04-14 14:04:00,
2013-04-14 10:09:00,34.5,29.3,30.07,ESE,103,2.0,4.0,81,0.01,,---,0.01,VWS V14.01,2013-04-14 14:09:00,
2013-04-14 10:10:00,31.3,28.4,30.07,ESE,106,1.0,4.0,89,0.00,,---,0.00,VWS V14.01,2013-04-14 14:10:00,
2013-04-14 10:14:00,34.7,29.2,30.07,ESE,122,2.0,4.0,80,0.01,,---,0.01,VWS V14.01,2013-04-14 14:14:00,
2013-04-14 10:19:00,34.6,28.5,30.07,SW,231,0.0,6.0,78,0.02,,---,0.02,VWS V14.01,2013-04-14 14:19:00,
2013-04-14 10:20:00,32.3,28.6,30.07,ESE,106,2.0,3.0,86,0.00,,---,0.00,VWS V14.01,2013-04-14 14:20:00,
2013-04-14 10:24:00,34.6,28.5,30.07,South,177,3.0,5.0,78,0.04,,---,0.04,VWS V14.01,2013-04-14 14:24:00,
2013-04-14 10:29:00,34.6,28.8,30.07,SSW,207,5.0,5.0,79,0.05,,---,0.05,VWS V14.01,2013-04-14 14:29:00,
2013-04-14 10:30:00,33.2,29.2,30.06,ESE,106,0.0,4.0,85,0.00,,---,0.00,VWS V14.01,2013-04-14 14:30:00,
2013-04-14 10:34:00,34.5,28.4,30.07,SW,223,0.0,3.0,78,0.06,,---,0.06,VWS V14.01,2013-04-14 14:34:00,
2013-04-14 10:39:00,34.5,27.7,30.07,WNW,286,0.0,6.0,76,0.07,,---,0.07,VWS V14.01,2013-04-14 14:39:00,
2013-04-14 10:40:00,33.9,29.9,30.06,ESE,105,0.0,3.0,85,0.00,,---,0.00,VWS V14.01,2013-04-14 14:40:00,
2013-04-14 10:44:00,34.7,27.6,30.07,WNW,286,0.0,1.0,75,0.08,,---,0.08,VWS V14.01,2013-04-14 14:44:00,
2013-04-14 10:49:00,35.5,28.7,30.07,WNW,290,1.0,3.0,76,0.08,,---,0.08,VWS V14.01,2013-04-14 14:49:00,
2013-04-14 10:50:00,34.3,29.4,30.06,ESE,106,1.0,3.0,82,0.01,,---,0.01,VWS V14.01,2013-04-14 14:50:00,
2013-04-14 10:54:00,36.2,28.4,30.06,WNW,289,3.0,4.0,73,0.08,,---,0.09,VWS V14.01,2013-04-14 14:54:00,
2013-04-14 10:59:00,36.7,28.5,30.06,WSW,253,2.0,4.0,72,0.08,,---,0.09,VWS V14.01,2013-04-14 14:59:00,
2013-04-14 11:00:00,33.6,28.7,30.07,ESE,105,0.0,3.0,82,0.01,,---,0.01,VWS V14.01,2013-04-14 15:00:00,
2013-04-14 11:04:00,36.6,28.4,30.06,WSW,250,0.0,2.0,72,0.08,,---,0.09,VWS V14.01,2013-04-14 15:04:00,
2013-04-14 11:09:00,36.5,27.3,30.06,WNW,301,2.0,6.0,69,0.09,,---,0.10,VWS V14.01,2013-04-14 15:09:00,
2013-04-14 11:10:00,34.6,29.4,30.07,ESE,114,4.0,5.0,81,0.01,,---,0.01,VWS V14.01,2013-04-14 15:10:00,
2013-04-14 11:14:00,36.3,28.1,30.05,North,0,2.0,5.0,72,0.09,,---,0.10,VWS V14.01,2013-04-14 15:14:00,
2013-04-14 11:19:00,36.6,28.8,30.05,North,0,6.0,6.0,73,0.10,,---,0.11,VWS V14.01,2013-04-14 15:19:00,
2013-04-14 11:20:00,34.6,28.8,30.07,SW,231,2.0,6.0,79,0.03,,---,0.03,VWS V14.01,2013-04-14 15:20:00,
2013-04-14 11:24:00,36.2,28.1,30.05,NNE,32,4.0,6.0,72,0.08,,---,0.11,VWS V14.01,2013-04-14 15:24:00,
2013-04-14 11:29:00,36.2,27.7,30.05,NNE,32,4.0,6.0,71,0.08,,---,0.11,VWS V14.01,2013-04-14 15:29:00,
2013-04-14 11:30:00,34.6,28.5,30.07,SSW,208,1.0,5.0,78,0.05,,---,0.05,VWS V14.01,2013-04-14 15:30:00,
2013-04-14 11:34:00,36.6,28.4,30.05,NNE,32,2.0,3.0,72,0.06,,---,0.11,VWS V14.01,2013-04-14 15:34:00,
2013-04-14 11:39:00,37.0,27.8,30.05,NW,319,5.0,7.0,69,0.07,,---,0.12,VWS V14.01,2013-04-14 15:39:00,
2013-04-14 11:40:00,34.5,27.4,30.07,WNW,286,0.0,6.0,75,0.07,,---,0.07,VWS V14.01,2013-04-14 15:40:00,
2013-04-14 11:44:00,36.7,27.9,30.05,NW,319,5.0,7.0,70,0.05,,---,0.12,VWS V14.01,2013-04-14 15:44:00,
2013-04-14 11:49:00,36.6,27.0,30.05,NW,319,4.0,7.0,68,0.05,,---,0.12,VWS V14.01,2013-04-14 15:49:00,
2013-04-14 11:50:00,35.6,28.8,30.06,WNW,286,1.0,3.0,76,0.09,,---,0.09,VWS V14.01,2013-04-14 15:50:00,
2013-04-14 11:54:00,36.9,28.0,30.05,NW,319,4.0,7.0,70,0.04,,---,0.13,VWS V14.01,2013-04-14 15:54:00,
2013-04-14 11:59:00,36.7,27.5,30.05,NW,319,4.0,7.0,69,0.04,,---,0.13,VWS V14.01,2013-04-14 15:59:00,
2013-04-14 12:00:00,36.6,28.1,30.06,WSW,250,2.0,4.0,71,0.08,,---,0.09,VWS V14.01,2013-04-14 16:00:00,
2013-04-14 12:04:00,36.7,27.5,30.05,NW,319,6.0,7.0,69,0.04,,---,0.13,VWS V14.01,2013-04-14 16:04:00,
2013-04-14 12:09:00,37.0,28.1,30.04,NW,319,4.0,7.0,70,0.04,,---,0.13,VWS V14.01,2013-04-14 16:09:00,
2013-04-14 12:10:00,36.4,27.2,30.06,NW,304,2.0,6.0,69,0.09,,---,0.10,VWS V14.01,2013-04-14 16:10:00,
2013-04-14 12:14:00,37.9,29.0,30.05,NE,45,7.0,9.0,70,0.04,,---,0.14,VWS V14.01,2013-04-14 16:14:00,
2013-04-14 12:19:00,37.9,28.3,30.05,NE,46,8.0,9.0,68,0.04,,---,0.14,VWS V14.01,2013-04-14 16:19:00,
2013-04-14 12:20:00,36.6,28.4,30.05,North,359,4.0,6.0,72,0.10,,---,0.11,VWS V14.01,2013-04-14 16:20:00,
2013-04-14 12:24:00,37.7,27.8,30.05,ENE,60,5.0,8.0,67,0.03,,---,0.14,VWS V14.01,2013-04-14 16:24:00,
2013-04-14 12:29:00,38.0,28.8,30.06,NNE,15,8.0,11.0,69,0.03,,---,0.14,VWS V14.01,2013-04-14 16:29:00,
2013-04-14 12:30:00,36.2,27.4,30.05,NNE,32,1.0,6.0,70,0.08,,---,0.11,VWS V14.01,2013-04-14 16:30:00,
2013-04-14 12:34:00,38.5,29.2,30.06,North,11,2.0,8.0,69,0.04,,---,0.15,VWS V14.01,2013-04-14 16:34:00,
2013-04-14 12:39:00,39.0,30.1,30.06,SE,144,5.0,8.0,70,0.04,,---,0.15,VWS V14.01,2013-04-14 16:39:00,
2013-04-14 12:40:00,37.0,27.8,30.05,NW,319,3.0,7.0,69,0.07,,---,0.12,VWS V14.01,2013-04-14 16:40:00,
2013-04-14 12:44:00,39.0,28.2,30.06,East,85,2.0,6.0,65,0.03,,---,0.15,VWS V14.01,2013-04-14 16:44:00,
2013-04-14 12:49:00,38.9,28.1,30.07,East,82,2.0,7.0,65,0.03,,---,0.15,VWS V14.01,2013-04-14 16:49:00,
2013-04-14 12:50:00,36.6,27.0,30.05,NW,319,3.0,7.0,68,0.05,,---,0.12,VWS V14.01,2013-04-14 16:50:00,
2013-04-14 12:54:00,38.9,27.8,30.06,East,83,3.0,4.0,64,0.03,,---,0.15,VWS V14.01,2013-04-14 16:54:00,
2013-04-14 12:59:00,38.9,28.1,30.06,East,83,0.0,4.0,65,0.04,,---,0.16,VWS V14.01,2013-04-14 16:59:00,
2013-04-14 13:00:00,36.7,27.1,30.05,NW,319,4.0,7.0,68,0.04,,---,0.13,VWS V14.01,2013-04-14 17:00:00,
2013-04-14 13:04:00,39.6,29.9,30.06,North,10,3.0,6.0,68,0.03,,---,0.16,VWS V14.01,2013-04-14 17:04:00,
2013-04-14 13:09:00,39.7,28.5,30.07,North,9,1.0,6.0,64,0.03,,---,0.16,VWS V14.01,2013-04-14 17:09:00,
2013-04-14 13:10:00,37.2,28.3,30.05,NW,319,5.0,7.0,70,0.04,,---,0.13,VWS V14.01,2013-04-14 17:10:00,
2013-04-14 13:14:00,39.7,28.5,30.07,North,8,4.0,5.0,64,0.03,,---,0.16,VWS V14.01,2013-04-14 17:14:00,
2013-04-14 13:19:00,39.9,28.0,30.07,South,186,2.0,6.0,62,0.03,,---,0.16,VWS V14.01,2013-04-14 17:19:00,
2013-04-14 13:20:00,37.9,27.9,30.05,ENE,61,4.0,9.0,67,0.04,,---,0.14,VWS V14.01,2013-04-14 17:20:00,
2013-04-14 13:24:00,40.0,28.0,30.07,WSW,251,4.0,5.0,62,0.02,,---,0.16,VWS V14.01,2013-04-14 17:24:00,
2013-04-14 13:29:00,39.9,28.0,30.06,WSW,254,1.0,7.0,62,0.02,,---,0.16,VWS V14.01,2013-04-14 17:29:00,
2013-04-14 13:30:00,38.2,30.0,30.06,NNE,19,6.0,11.0,72,0.03,,---,0.14,VWS V14.01,2013-04-14 17:30:00,
2013-04-14 13:34:00,40.0,27.2,30.07,WSW,251,4.0,7.0,60,0.02,,---,0.16,VWS V14.01,2013-04-14 17:34:00,
2013-04-14 13:39:00,40.2,27.0,30.06,WSW,253,5.0,7.0,59,0.02,,---,0.16,VWS V14.01,2013-04-14 17:39:00,
2013-04-14 13:40:00,39.0,30.1,30.06,South,169,4.0,8.0,70,0.04,,---,0.15,VWS V14.01,2013-04-14 17:40:00,
2013-04-14 13:44:00,40.5,28.1,30.06,WSW,253,1.0,5.0,61,0.01,,---,0.16,VWS V14.01,2013-04-14 17:44:00,
2013-04-14 13:49:00,40.9,28.1,30.06,NNW,328,4.0,6.0,60,0.01,,---,0.16,VWS V14.01,2013-04-14 17:49:00,
2013-04-14 13:50:00,38.9,28.1,30.07,East,81,2.0,7.0,65,0.03,,---,0.15,VWS V14.01,2013-04-14 17:50:00,
2013-04-14 13:54:00,41.2,28.0,30.07,South,185,3.0,7.0,59,0.01,,---,0.16,VWS V14.01,2013-04-14 17:54:00,
2013-04-14 13:59:00,40.9,27.3,30.07,West,260,5.0,7.0,58,0.01,,---,0.16,VWS V14.01,2013-04-14 17:59:00,
2013-04-14 14:00:00,38.9,28.1,30.06,East,83,0.0,4.0,65,0.04,,---,0.16,VWS V14.01,2013-04-14 18:00:00,
2013-04-14 14:04:00,40.7,27.1,30.07,WSW,257,2.0,7.0,58,0.00,,---,0.16,VWS V14.01,2013-04-14 18:04:00,
2013-04-14 14:09:00,41.2,28.4,30.08,South,180,2.0,8.0,60,0.00,,---,0.16,VWS V14.01,2013-04-14 18:09:00,
2013-04-14 14:10:00,39.6,28.4,30.06,North,9,0.0,6.0,64,0.03,,---,0.16,VWS V14.01,2013-04-14 18:10:00,
2013-04-14 14:14:00,41.6,27.9,30.08,SW,214,3.0,10.0,58,0.00,,---,0.16,VWS V14.01,2013-04-14 18:14:00,
2013-04-14 14:19:00,41.6,27.1,30.07,South,190,4.0,10.0,56,0.00,,---,0.16,VWS V14.01,2013-04-14 18:19:00,
2013-04-14 14:20:00,39.9,27.6,30.07,South,186,2.0,6.0,61,0.03,,---,0.16,VWS V14.01,2013-04-14 18:20:00,
2013-04-14 14:24:00,41.3,26.8,30.08,South,183,0.0,6.0,56,0.00,,---,0.16,VWS V14.01,2013-04-14 18:24:00,
2013-04-14 14:29:00,41.6,27.9,30.08,South,191,2.0,6.0,58,0.00,,---,0.16,VWS V14.01,2013-04-14 18:29:00,
2013-04-14 14:30:00,39.9,28.0,30.06,WSW,254,1.0,7.0,62,0.02,,---,0.16,VWS V14.01,2013-04-14 18:30:00,
2013-04-14 14:35:00,41.6,27.9,30.08,ESE,118,0.0,8.0,58,0.00,,---,0.16,VWS V14.01,2013-04-14 18:35:00,
2013-04-14 14:40:00,42.0,28.7,30.07,ESE,120,1.0,8.0,59,0.00,,---,0.16,VWS V14.01,2013-04-14 18:40:00,
2013-04-14 14:45:00,42.2,28.9,30.07,SW,222,2.0,5.0,59,0.00,,---,0.16,VWS V14.01,2013-04-14 18:45:00,
2013-04-14 14:50:00,42.3,27.7,30.07,SSW,197,2.0,5.0,56,0.00,,---,0.16,VWS V14.01,2013-04-14 18:50:00,
2013-04-14 14:55:00,42.0,27.5,30.07,SSW,197,2.0,4.0,56,0.00,,---,0.16,VWS V14.01,2013-04-14 18:55:00,
2013-04-14 15:00:00,42.2,28.1,30.07,SE,146,3.0,7.0,57,0.00,,---,0.16,VWS V14.01,2013-04-14 19:00:00,
2013-04-14 15:05:00,42.3,26.9,30.06,SW,214,5.0,9.0,54,0.00,,---,0.16,VWS V14.01,2013-04-14 19:05:00,
2013-04-14 15:10:00,42.4,27.4,30.06,SSW,201,3.0,3.0,55,0.00,,---,0.16,VWS V14.01,2013-04-14 19:10:00,
2013-04-14 15:15:00,42.6,27.1,30.06,SSE,168,3.0,5.0,54,0.00,,---,0.16,VWS V14.01,2013-04-14 19:15:00,
2013-04-14 15:20:00,42.7,27.2,30.05,SW,214,4.0,6.0,54,0.00,,---,0.16,VWS V14.01,2013-04-14 19:20:00,
2013-04-14 15:25:00,42.6,27.1,30.05,South,188,3.0,8.0,54,0.00,,---,0.16,VWS V14.01,2013-04-14 19:25:00,
2013-04-14 15:30:00,42.7,27.7,30.04,SE,124,2.0,4.0,55,0.00,,---,0.16,VWS V14.01,2013-04-14 19:30:00,
2013-04-14 15:35:00,43.0,28.0,30.04,ESE,120,2.0,4.0,55,0.00,,---,0.16,VWS V14.01,2013-04-14 19:35:00,
2013-04-14 15:40:00,43.2,26.8,30.03,South,179,2.0,4.0,52,0.00,,---,0.16,VWS V14.01,2013-04-14 19:40:00,
2013-04-14 15:45:00,43.3,26.9,30.03,South,183,5.0,6.0,52,0.00,,---,0.16,VWS V14.01,2013-04-14 19:45:00,
2013-04-14 15:50:00,43.7,28.2,30.03,South,191,3.0,5.0,54,0.01,,---,0.17,VWS V14.01,2013-04-14 19:50:00,
2013-04-14 15:55:00,43.7,27.2,30.03,SSE,167,1.0,7.0,52,0.01,,---,0.17,VWS V14.01,2013-04-14 19:55:00,
2013-04-14 16:00:00,43.5,26.6,30.02,SSE,164,1.0,3.0,51,0.01,,---,0.17,VWS V14.01,2013-04-14 20:00:00,
2013-04-14 16:05:00,43.0,26.6,30.02,SE,140,4.0,6.0,52,0.01,,---,0.17,VWS V14.01,2013-04-14 20:05:00,
2013-04-14 16:10:00,43.2,26.8,30.01,ESE,103,1.0,4.0,52,0.01,,---,0.17,VWS V14.01,2013-04-14 20:10:00,
2013-04-14 16:15:00,43.2,27.7,30.01,SE,126,6.0,6.0,54,0.01,,---,0.17,VWS V14.01,2013-04-14 20:15:00,
2013-04-14 16:20:00,43.3,26.4,30.01,SSE,164,2.0,3.0,51,0.01,,---,0.17,VWS V14.01,2013-04-14 20:20:00,
2013-04-14 16:25:00,43.4,27.0,30.00,NE,48,1.0,5.0,52,0.01,,---,0.17,VWS V14.01,2013-04-14 20:25:00,
2013-04-14 16:30:00,43.6,26.7,30.00,East,86,1.0,4.0,51,0.01,,---,0.17,VWS V14.01,2013-04-14 20:30:00,
2013-04-14 16:35:00,43.5,26.1,30.00,East,89,1.0,8.0,50,0.01,,---,0.17,VWS V14.01,2013-04-14 20:35:00,
2013-04-14 16:40:00,43.5,26.1,30.01,ENE,57,3.0,3.0,50,0.01,,---,0.17,VWS V14.01,2013-04-14 20:40:00,
2013-04-14 16:45:00,43.5,26.6,30.00,East,90,4.0,9.0,51,0.01,,---,0.17,VWS V14.01,2013-04-14 20:45:00,
2013-04-14 16:50:00,43.4,26.0,29.99,East,89,3.0,5.0,50,0.00,,---,0.17,VWS V14.01,2013-04-14 20:50:00,
2013-04-14 16:55:00,43.6,25.7,29.99,ENE,76,4.0,6.0,49,0.00,,---,0.17,VWS V14.01,2013-04-14 20:55:00,
2013-04-14 17:00:00,43.6,26.7,29.99,ESE,119,2.0,3.0,51,0.00,,---,0.17,VWS V14.01,2013-04-14 21:00:00,
2013-04-14 17:05:00,43.6,26.2,29.99,SE,146,0.0,6.0,50,0.00,,---,0.17,VWS V14.01,2013-04-14 21:05:00,
2013-04-14 17:10:00,43.6,26.7,29.99,East,85,4.0,5.0,51,0.00,,---,0.17,VWS V14.01,2013-04-14 21:10:00,
2013-04-14 17:15:00,43.6,26.2,29.98,NNE,13,1.0,8.0,50,0.00,,---,0.17,VWS V14.01,2013-04-14 21:15:00,
2013-04-14 17:20:00,43.5,26.6,30.00,ENE,60,5.0,10.0,51,0.00,,---,0.17,VWS V14.01,2013-04-14 21:20:00,
2013-04-14 17:25:00,43.4,27.0,29.99,ENE,64,3.0,10.0,52,0.00,,---,0.17,VWS V14.01,2013-04-14 21:25:00,
2013-04-14 17:30:00,43.3,26.4,29.98,East,93,6.0,8.0,51,0.00,,---,0.17,VWS V14.01,2013-04-14 21:30:00,
2013-04-14 17:35:00,43.3,26.4,29.98,ENE,68,4.0,8.0,51,0.00,,---,0.17,VWS V14.01,2013-04-14 21:35:00,
2013-04-14 17:40:00,43.3,26.9,30.00,SE,124,6.0,6.0,52,0.00,,---,0.17,VWS V14.01,2013-04-14 21:40:00,
2013-04-14 17:45:00,43.0,26.6,29.98,NE,49,3.0,8.0,52,0.00,,---,0.17,VWS V14.01,2013-04-14 21:45:00,
2013-04-14 17:50:00,43.2,27.2,29.98,ESE,111,2.0,10.0,53,0.00,,---,0.17,VWS V14.01,2013-04-14 21:50:00,
2013-04-14 17:56:00,43.2,26.3,29.99,East,86,3.0,10.0,51,0.00,,---,0.17,VWS V14.01,2013-04-14 21:56:00,
2013-04-14 18:00:00,43.6,26.7,29.98,ESE,119,2.0,6.0,51,0.00,,---,0.17,VWS V14.01,2013-04-14 22:00:00,
2013-04-14 18:01:00,43.2,26.8,29.98,East,97,3.0,11.0,52,0.00,,---,0.17,VWS V14.01,2013-04-14 22:01:00,
2013-04-14 18:06:00,43.2,26.8,29.98,East,96,4.0,11.0,52,0.00,,---,0.17,VWS V14.01,2013-04-14 22:06:00,
2013-04-14 18:10:00,43.6,26.7,29.99,South,178,2.0,6.0,51,0.00,,---,0.17,VWS V14.01,2013-04-14 22:10:00,
2013-04-14 18:11:00,43.2,26.8,29.99,East,81,4.0,7.0,52,0.00,,---,0.17,VWS V14.01,2013-04-14 22:11:00,
2013-04-14 18:17:00,43.0,27.0,29.98,East,85,1.0,8.0,53,0.00,,---,0.17,VWS V14.01,2013-04-14 22:17:00,
2013-04-14 18:20:00,43.6,26.7,29.99,NE,51,9.0,11.0,51,0.00,,---,0.17,VWS V14.01,2013-04-14 22:20:00,
2013-04-14 18:22:00,43.0,26.6,29.98,SSE,148,3.0,5.0,52,0.00,,---,0.17,VWS V14.01,2013-04-14 22:22:00,
2013-04-14 18:27:00,43.0,26.6,29.98,East,99,3.0,9.0,52,0.00,,---,0.17,VWS V14.01,2013-04-14 22:27:00,
2013-04-14 18:30:00,43.3,26.9,29.98,East,82,4.0,10.0,52,0.00,,---,0.17,VWS V14.01,2013-04-14 22:30:00,
2013-04-14 18:32:00,43.0,26.6,29.97,ENE,72,5.0,9.0,52,0.00,,---,0.17,VWS V14.01,2013-04-14 22:32:00,
2013-04-14 18:37:00,43.1,26.7,29.96,East,80,4.0,10.0,52,0.00,,---,0.17,VWS V14.01,2013-04-14 22:37:00,
2013-04-14 18:40:00,43.3,26.9,30.00,NNE,33,1.0,8.0,52,0.00,,---,0.17,VWS V14.01,2013-04-14 22:40:00,
2013-04-14 18:42:00,43.3,26.9,29.96,NE,48,5.0,11.0,52,0.00,,---,0.17,VWS V14.01,2013-04-14 22:42:00,
2013-04-14 18:47:00,43.4,27.0,29.96,East,98,2.0,11.0,52,0.00,,---,0.17,VWS V14.01,2013-04-14 22:47:00,
2013-04-14 18:50:00,43.2,27.2,29.99,SE,132,5.0,8.0,53,0.00,,---,0.17,VWS V14.01,2013-04-14 22:50:00,
2013-04-14 18:52:00,43.4,27.0,29.95,NE,48,1.0,5.0,52,0.00,,---,0.17,VWS V14.01,2013-04-14 22:52:00,
2013-04-14 18:57:00,43.4,27.4,29.95,NE,46,2.0,7.0,53,0.00,,---,0.17,VWS V14.01,2013-04-14 22:57:00,
2013-04-14 19:00:00,43.2,27.2,29.98,ENE,60,1.0,10.0,53,0.00,,---,0.17,VWS V14.01,2013-04-14 23:00:00,
2013-04-14 19:02:00,43.4,27.4,29.95,ESE,113,2.0,6.0,53,0.00,,---,0.17,VWS V14.01,2013-04-14 23:02:00,
2013-04-14 19:07:00,43.3,27.8,29.95,ENE,69,4.0,6.0,54,0.00,,---,0.17,VWS V14.01,2013-04-14 23:07:00,
2013-04-14 19:10:00,43.2,26.8,29.99,East,88,0.0,11.0,52,0.00,,---,0.17,VWS V14.01,2013-04-14 23:10:00,
2013-04-14 19:12:00,43.4,27.0,29.95,ENE,63,2.0,6.0,52,0.00,,---,0.17,VWS V14.01,2013-04-14 23:12:00,
2013-04-14 19:17:00,43.4,27.0,29.95,NE,38,3.0,6.0,52,0.00,,---,0.17,VWS V14.01,2013-04-14 23:17:00,
2013-04-14 19:20:00,43.0,26.1,29.97,NE,46,2.0,10.0,51,0.00,,---,0.17,VWS V14.01,2013-04-14 23:20:00,
2013-04-14 19:22:00,43.5,26.6,29.95,ESE,106,0.0,11.0,51,0.00,,---,0.17,VWS V14.01,2013-04-14 23:22:00,
2013-04-14 19:27:00,43.5,26.1,29.95,ESE,105,0.0,11.0,50,0.00,,---,0.17,VWS V14.01,2013-04-14 23:27:00,
2013-04-14 19:30:00,43.0,26.6,29.97,NE,46,2.0,9.0,52,0.00,,---,0.17,VWS V14.01,2013-04-14 23:30:00,
2013-04-14 19:32:00,43.4,26.5,29.95,East,90,2.0,4.0,51,0.00,,---,0.17,VWS V14.01,2013-04-14 23:32:00,
2013-04-14 19:37:00,43.4,27.0,29.95,East,90,0.0,4.0,52,0.00,,---,0.17,VWS V14.01,2013-04-14 23:37:00,
2013-04-14 19:40:00,43.2,26.3,29.96,ENE,63,3.0,10.0,51,0.00,,---,0.17,VWS V14.01,2013-04-14 23:40:00,
2013-04-14 19:42:00,43.3,26.4,29.95,ENE,68,2.0,6.0,51,0.00,,---,0.17,VWS V14.01,2013-04-14 23:42:00,
2013-04-14 19:47:00,43.3,26.9,29.95,SE,136,2.0,7.0,52,0.00,,---,0.17,VWS V14.01,2013-04-14 23:47:00,
2013-04-14 19:50:00,43.5,27.1,29.95,ENE,58,2.0,11.0,52,0.00,,---,0.17,VWS V14.01,2013-04-14 23:50:00,
2013-04-14 19:52:00,43.3,26.4,29.95,South,169,4.0,9.0,51,0.00,,---,0.17,VWS V14.01,2013-04-14 23:52:00,
2013-04-14 19:57:00,43.1,26.2,29.95,ESE,110,6.0,9.0,51,0.00,,---,0.17,VWS V14.01,2013-04-14 23:57:00,
2013-04-14 20:00:00,43.4,26.5,29.95,NE,52,2.0,7.0,51,0.00,,---,0.17,VWS V14.01,2013-04-15 00:00:00,
2013-04-14 20:02:00,43.0,26.1,29.95,SSE,151,1.0,7.0,51,0.00,,---,0.17,VWS V14.01,2013-04-15 00:02:00,
2013-04-14 20:07:00,42.9,26.5,29.95,SE,137,6.0,9.0,52,0.00,,---,0.17,VWS V14.01,2013-04-15 00:07:00,
2013-04-14 20:10:00,43.3,27.3,29.95,ESE,104,2.0,6.0,53,0.00,,---,0.17,VWS V14.01,2013-04-15 00:10:00,
2013-04-14 20:13:00,42.9,27.0,29.95,ESE,120,10.0,10.0,53,0.00,,---,0.17,VWS V14.01,2013-04-15 00:13:00,
2013-04-14 20:18:00,42.6,27.1,29.95,ESE,108,3.0,14.0,54,0.00,,---,0.17,VWS V14.01,2013-04-15 00:18:00,
2013-04-14 20:20:00,43.3,26.9,29.95,East,83,4.0,6.0,52,0.00,,---,0.17,VWS V14.01,2013-04-15 00:20:00,
2013-04-14 20:23:00,42.4,27.4,29.95,ENE,74,6.0,15.0,55,0.00,,---,0.17,VWS V14.01,2013-04-15 00:23:00,
2013-04-14 20:28:00,42.3,27.7,29.95,NE,51,3.0,15.0,56,0.00,,---,0.17,VWS V14.01,2013-04-15 00:28:00,
2013-04-14 20:30:00,43.4,26.5,29.95,ESE,112,0.0,11.0,51,0.00,,---,0.17,VWS V14.01,2013-04-15 00:30:00,
2013-04-14 20:33:00,42.0,27.9,29.95,ENE,65,3.0,9.0,57,0.00,,---,0.17,VWS V14.01,2013-04-15 00:33:00,
2013-04-14 20:38:00,41.7,28.0,29.95,East,98,2.0,10.0,58,0.00,,---,0.17,VWS V14.01,2013-04-15 00:38:00,
2013-04-14 20:40:00,43.3,26.9,29.95,SE,127,6.0,9.0,52,0.00,,---,0.17,VWS V14.01,2013-04-15 00:40:00,
2013-04-14 20:43:00,41.5,28.3,29.95,ENE,75,3.0,12.0,59,0.00,,---,0.17,VWS V14.01,2013-04-15 00:43:00,
2013-04-14 20:48:00,41.2,28.4,29.95,South,177,4.0,12.0,60,0.00,,---,0.17,VWS V14.01,2013-04-15 00:48:00,
2013-04-14 20:50:00,43.3,26.4,29.95,ESE,121,6.0,12.0,51,0.00,,---,0.17,VWS V14.01,2013-04-15 00:50:00,
2013-04-14 20:53:00,41.0,28.2,29.96,SSE,160,2.0,6.0,60,0.00,,---,0.17,VWS V14.01,2013-04-15 00:53:00,
2013-04-14 20:58:00,41.0,28.2,29.96,South,176,0.0,10.0,60,0.00,,---,0.17,VWS V14.01,2013-04-15 00:58:00,
2013-04-14 21:00:00,43.2,26.3,29.95,SE,138,4.0,9.0,51,0.00,,---,0.17,VWS V14.01,2013-04-15 01:00:00,
2013-04-14 21:03:00,40.7,28.3,29.96,SSE,147,6.0,10.0,61,0.00,,---,0.17,VWS V14.01,2013-04-15 01:03:00,
2013-04-14 21:08:00,40.7,28.3,29.96,SE,144,1.0,10.0,61,0.00,,---,0.17,VWS V14.01,2013-04-15 01:08:00,
2013-04-14 21:10:00,42.9,27.0,29.95,ENE,60,6.0,9.0,53,0.00,,---,0.17,VWS V14.01,2013-04-15 01:10:00,
2013-04-14 21:13:00,40.7,27.9,29.96,ESE,105,2.0,5.0,60,0.00,,---,0.17,VWS V14.01,2013-04-15 01:13:00,
2013-04-14 21:18:00,40.6,27.4,29.97,SE,124,3.0,13.0,59,0.00,,---,0.17,VWS V14.01,2013-04-15 01:18:00,
2013-04-14 21:20:00,42.6,27.6,29.95,SSE,166,2.0,14.0,55,0.00,,---,0.17,VWS V14.01,2013-04-15 01:20:00,
2013-04-14 21:23:00,40.5,27.3,29.97,South,171,4.0,7.0,59,0.00,,---,0.17,VWS V14.01,2013-04-15 01:23:00,
2013-04-14 21:28:00,40.2,27.4,29.97,SE,146,4.0,7.0,60,0.00,,---,0.17,VWS V14.01,2013-04-15 01:28:00,
2013-04-14 21:30:00,42.2,27.6,29.95,ENE,72,3.0,15.0,56,0.00,,---,0.17,VWS V14.01,2013-04-15 01:30:00,
2013-04-14 21:33:00,40.2,27.0,29.96,East,99,3.0,6.0,59,0.00,,---,0.17,VWS V14.01,2013-04-15 01:33:00,
2013-04-14 21:38:00,40.0,26.8,29.97,SE,137,2.0,7.0,59,0.00,,---,0.17,VWS V14.01,2013-04-15 01:38:00,
2013-04-14 21:40:00,41.6,28.4,29.95,SSE,165,1.0,10.0,59,0.00,,---,0.17,VWS V14.01,2013-04-15 01:40:00,
2013-04-14 21:43:00,40.0,27.2,29.96,ESE,113,1.0,9.0,60,0.00,,---,0.17,VWS V14.01,2013-04-15 01:43:00,
2013-04-14 21:49:00,39.9,26.8,29.96,NNE,31,1.0,10.0,59,0.00,,---,0.17,VWS V14.01,2013-04-15 01:49:00,
2013-04-14 21:50:00,41.2,28.4,29.95,ESE,110,2.0,12.0,60,0.00,,---,0.17,VWS V14.01,2013-04-15 01:50:00,
2013-04-14 21:54:00,39.7,27.0,29.96,ESE,123,4.0,10.0,60,0.00,,---,0.17,VWS V14.01,2013-04-15 01:54:00,
2013-04-14 21:59:00,39.7,26.6,29.96,ESE,118,8.0,16.0,59,0.00,,---,0.17,VWS V14.01,2013-04-15 01:59:00,
2013-04-14 22:00:00,40.9,28.5,29.96,ESE,120,3.0,10.0,61,0.00,,---,0.17,VWS V14.01,2013-04-15 02:00:00,
2013-04-14 22:04:00,39.7,27.4,29.96,ESE,108,5.0,10.0,61,0.00,,---,0.17,VWS V14.01,2013-04-15 02:04:00,
2013-04-14 22:09:00,39.5,27.6,29.96,SE,142,2.0,11.0,62,0.00,,---,0.17,VWS V14.01,2013-04-15 02:09:00,
2013-04-14 22:10:00,40.7,27.9,29.96,ESE,120,3.0,10.0,60,0.00,,---,0.17,VWS V14.01,2013-04-15 02:10:00,
2013-04-14 22:13:00,39.3,28.2,29.96,SSE,156,4.0,9.0,64,0.00,,---,0.17,VWS V14.01,2013-04-15 02:13:00,
2013-04-14 22:18:00,39.0,28.2,29.96,ESE,114,2.0,9.0,65,0.00,,---,0.17,VWS V14.01,2013-04-15 02:18:00,
2013-04-14 22:20:00,40.5,27.3,29.97,East,99,2.0,13.0,59,0.00,,---,0.17,VWS V14.01,2013-04-15 02:20:00,
2013-04-14 22:24:00,38.7,28.7,29.96,SE,131,1.0,7.0,67,0.00,,---,0.17,VWS V14.01,2013-04-15 02:24:00,
2013-04-14 22:29:00,38.7,28.3,29.96,ESE,115,3.0,7.0,66,0.00,,---,0.17,VWS V14.01,2013-04-15 02:29:00,
2013-04-14 22:30:00,40.2,27.0,29.97,SE,140,1.0,7.0,59,0.00,,---,0.17,VWS V14.01,2013-04-15 02:30:00,
2013-04-14 22:34:00,38.7,28.7,29.96,SE,133,8.0,9.0,67,0.00,,---,0.17,VWS V14.01,2013-04-15 02:34:00,
2013-04-14 22:39:00,38.6,29.0,29.95,ENE,60,6.0,9.0,68,0.00,,---,0.17,VWS V14.01,2013-04-15 02:39:00,
2013-04-14 22:40:00,40.0,26.8,29.97,ESE,122,1.0,7.0,59,0.00,,---,0.17,VWS V14.01,2013-04-15 02:40:00,
2013-04-14 22:44:00,38.3,28.7,29.95,East,93,6.0,7.0,68,0.00,,---,0.17,VWS V14.01,2013-04-15 02:44:00,
2013-04-14 22:49:00,38.2,28.9,29.95,South,171,1.0,8.0,69,0.00,,---,0.17,VWS V14.01,2013-04-15 02:49:00,
2013-04-14 22:50:00,39.9,27.2,29.96,SE,143,4.0,10.0,60,0.00,,---,0.17,VWS V14.01,2013-04-15 02:50:00,
2013-04-14 22:54:00,38.0,28.8,29.95,SE,133,0.0,6.0,69,0.00,,---,0.17,VWS V14.01,2013-04-15 02:54:00,
2013-04-14 22:59:00,37.9,29.0,29.95,ESE,108,5.0,8.0,70,0.00,,---,0.17,VWS V14.01,2013-04-15 02:59:00,
2013-04-14 23:00:00,39.7,26.6,29.96,ENE,78,3.0,16.0,59,0.00,,---,0.17,VWS V14.01,2013-04-15 03:00:00,
2013-04-14 23:04:00,37.8,28.9,29.95,SE,130,2.0,9.0,70,0.00,,---,0.17,VWS V14.01,2013-04-15 03:04:00,
2013-04-14 23:09:00,37.7,28.5,29.94,East,89,2.0,9.0,69,0.00,,---,0.17,VWS V14.01,2013-04-15 03:09:00,
2013-04-14 23:10:00,39.5,27.6,29.96,East,98,3.0,11.0,62,0.00,,---,0.17,VWS V14.01,2013-04-15 03:10:00,
2013-04-14 23:14:00,37.8,28.9,29.94,East,97,1.0,7.0,70,0.00,,---,0.17,VWS V14.01,2013-04-15 03:14:00,
2013-04-14 23:19:00,37.6,28.7,29.94,East,80,4.0,7.0,70,0.00,,---,0.17,VWS V14.01,2013-04-15 03:19:00,
2013-04-14 23:20:00,38.9,28.9,29.96,SE,130,6.0,9.0,67,0.00,,---,0.17,VWS V14.01,2013-04-15 03:20:00,
2013-04-14 23:24:00,37.6,28.4,29.94,ENE,58,7.0,9.0,69,0.00,,---,0.17,VWS V14.01,2013-04-15 03:24:00,
2013-04-14 23:29:00,37.6,28.7,29.94,ENE,78,2.0,11.0,70,0.00,,---,0.17,VWS V14.01,2013-04-15 03:29:00,
2013-04-14 23:30:00,38.7,28.7,29.96,East,95,1.0,7.0,67,0.00,,---,0.17,VWS V14.01,2013-04-15 03:30:00,
2013-04-14 23:34:00,37.8,28.9,29.94,East,90,1.0,9.0,70,0.00,,---,0.17,VWS V14.01,2013-04-15 03:34:00,
2013-04-14 23:39:00,37.7,28.8,29.93,ENE,70,2.0,9.0,70,0.00,,---,0.17,VWS V14.01,2013-04-15 03:39:00,
2013-04-14 23:40:00,38.5,28.9,29.95,East,91,6.0,12.0,68,0.00,,---,0.17,VWS V14.01,2013-04-15 03:40:00,
2013-04-14 23:44:00,37.7,28.8,29.93,ENE,67,0.0,11.0,70,0.00,,---,0.17,VWS V14.01,2013-04-15 03:44:00,
2013-04-14 23:49:00,37.7,28.8,29.93,ESE,116,3.0,11.0,70,0.00,,---,0.17,VWS V14.01,2013-04-15 03:49:00,
2013-04-14 23:50:00,38.2,28.9,29.96,ENE,72,2.0,8.0,69,0.00,,---,0.17,VWS V14.01,2013-04-15 03:50:00,
2013-04-14 23:54:00,37.7,28.8,29.93,ENE,71,1.0,6.0,70,0.00,,---,0.17,VWS V14.01,2013-04-15 03:54:00,
2013-04-14 23:59:00,37.7,28.8,29.93,East,101,0.0,9.0,70,0.00,,---,0.17,VWS V14.01,2013-04-15 03:59:00,